ROIG(METAR)
05/24 13:00
METAR ROIG 240400Z 09012KT 9999 BKN026 28/20 Q1014 RMK 5CU026 A2996=
戻る
トップページへ戻る
IMOC Co,.Ltd.